createdAt,value
2018-12-22T00:02:10.150Z,39.50
2018-12-22T00:04:37.747Z,43.07
2018-12-22T00:07:05.340Z,33.20
2018-12-22T00:09:32.961Z,32.30
2018-12-22T00:12:00.806Z,32.07
2018-12-22T00:14:28.408Z,34.43
2018-12-22T00:16:55.999Z,32.57
2018-12-22T00:19:23.555Z,28.80
2018-12-22T00:21:51.148Z,28.70
2018-12-22T00:24:18.700Z,29.37
2018-12-22T00:26:46.277Z,31.50
2018-12-22T00:29:13.897Z,36.73
2018-12-22T00:31:41.500Z,30.40
2018-12-22T00:34:09.073Z,34.00
2018-12-22T00:36:36.667Z,34.57
2018-12-22T00:39:05.969Z,35.53
2018-12-22T00:41:33.617Z,36.33
2018-12-22T00:44:01.217Z,33.47
2018-12-22T00:46:28.809Z,35.73
2018-12-22T00:48:56.396Z,36.13
2018-12-22T00:54:15.116Z,31.50
2018-12-22T00:56:42.736Z,29.20
2018-12-22T00:59:10.616Z,39.43
2018-12-22T01:01:38.456Z,33.83
2018-12-22T01:04:06.061Z,32.23
2018-12-22T01:06:33.777Z,31.67
2018-12-22T01:09:01.405Z,34.90
2018-12-22T01:11:28.989Z,31.13
2018-12-22T01:13:56.544Z,33.67
2018-12-22T01:16:24.165Z,31.30
2018-12-22T01:18:51.785Z,31.97
2018-12-22T01:21:19.368Z,30.03
2018-12-22T01:23:46.971Z,33.53
2018-12-22T01:26:14.560Z,33.97
2018-12-22T01:28:42.230Z,33.77
2018-12-22T01:31:09.789Z,33.47
2018-12-22T01:33:37.379Z,32.60
2018-12-22T01:36:04.925Z,22.33
2018-12-22T01:38:32.546Z,35.87
2018-12-22T01:41:00.228Z,30.07
2018-12-22T01:43:27.779Z,28.73
2018-12-22T01:45:55.374Z,33.03
2018-12-22T01:48:22.963Z,31.20
2018-12-22T01:50:50.555Z,28.90
2018-12-22T01:53:18.153Z,28.83
2018-12-22T01:55:45.714Z,33.37
2018-12-22T01:58:13.306Z,33.27
2018-12-22T02:00:40.887Z,34.20
2018-12-22T02:03:08.504Z,32.30
2018-12-22T02:05:36.120Z,36.87
2018-12-22T02:08:03.743Z,36.63
2018-12-22T02:10:31.392Z,37.60
2018-12-22T02:12:59.006Z,37.03
2018-12-22T02:15:26.564Z,32.23
2018-12-22T02:17:54.173Z,38.03
2018-12-22T02:20:21.755Z,29.23
2018-12-22T02:22:49.346Z,27.50
2018-12-22T02:25:16.932Z,30.93
2018-12-22T02:27:44.553Z,29.57
2018-12-22T02:30:12.151Z,30.70
2018-12-22T02:32:39.755Z,28.13
2018-12-22T02:35:07.336Z,36.93
2018-12-22T02:37:34.956Z,29.30
2018-12-22T02:40:03.024Z,30.43
2018-12-22T02:42:30.580Z,34.97
2018-12-22T02:44:58.170Z,31.73
2018-12-22T02:47:25.742Z,29.00
2018-12-22T02:49:53.339Z,25.80
2018-12-22T02:52:20.982Z,30.60
2018-12-22T02:54:48.538Z,28.80
2018-12-22T02:57:16.143Z,33.10
2018-12-22T02:59:43.737Z,33.27
2018-12-22T03:05:01.753Z,30.87
2018-12-22T03:07:29.472Z,33.70
2018-12-22T03:09:57.193Z,33.73
2018-12-22T03:12:24.813Z,31.60
2018-12-22T03:14:52.385Z,32.07
2018-12-22T03:17:20.037Z,30.80
2018-12-22T03:19:47.629Z,30.30
2018-12-22T03:22:15.183Z,26.53
2018-12-22T03:24:42.738Z,27.87
2018-12-22T03:27:10.327Z,27.90
2018-12-22T03:29:37.879Z,30.67
2018-12-22T03:32:05.499Z,26.27
2018-12-22T03:34:33.192Z,31.67
2018-12-22T03:37:00.780Z,28.60
2018-12-22T03:39:28.385Z,20.27
2018-12-22T03:41:55.962Z,19.00
2018-12-22T03:44:23.563Z,18.50
2018-12-22T03:46:51.152Z,20.00
2018-12-22T03:49:18.746Z,14.23
2018-12-22T03:51:46.305Z,14.60
2018-12-22T03:54:13.908Z,14.00
2018-12-22T03:56:41.461Z,12.97
2018-12-22T03:59:09.076Z,14.10
2018-12-22T04:01:36.659Z,12.00
2018-12-22T04:04:04.353Z,14.47
2018-12-22T04:06:31.911Z,11.43
2018-12-22T04:08:59.492Z,12.10
2018-12-22T04:11:27.039Z,10.83
2018-12-22T04:13:54.625Z,10.97
2018-12-22T04:16:22.173Z,15.13
2018-12-22T04:18:49.804Z,11.37
2018-12-22T04:21:17.368Z,13.63
2018-12-22T04:23:44.948Z,16.33
2018-12-22T04:26:12.554Z,14.87
2018-12-22T04:28:40.136Z,14.77
2018-12-22T04:31:07.731Z,16.00
2018-12-22T04:33:35.324Z,18.17
2018-12-22T04:36:02.904Z,21.43
2018-12-22T04:38:30.488Z,24.33
2018-12-22T04:40:58.260Z,28.93
2018-12-22T04:43:26.155Z,20.97
2018-12-22T04:45:53.714Z,27.43
2018-12-22T04:48:21.312Z,25.70
2018-12-22T04:50:48.934Z,25.00
2018-12-22T04:53:16.556Z,22.50
2018-12-22T04:55:44.110Z,21.00
2018-12-22T04:58:11.728Z,22.63
2018-12-22T05:00:39.284Z,16.83
2018-12-22T05:03:06.867Z,21.10
2018-12-22T05:05:34.424Z,17.80
2018-12-22T05:08:02.017Z,13.00
2018-12-22T05:10:29.572Z,11.73
2018-12-22T05:12:57.164Z,15.90
2018-12-22T05:15:24.713Z,15.97
2018-12-22T05:17:52.300Z,17.20
2018-12-22T05:20:19.853Z,9.93
2018-12-22T05:22:47.441Z,16.33
2018-12-22T05:25:15.027Z,16.60
2018-12-22T05:27:42.651Z,13.80
2018-12-22T05:30:10.237Z,17.20
2018-12-22T05:32:37.788Z,17.90
2018-12-22T05:35:05.537Z,11.70
2018-12-22T05:37:33.135Z,16.53
2018-12-22T05:40:00.714Z,12.43
2018-12-22T05:42:28.302Z,11.23
2018-12-22T05:44:55.851Z,9.80
2018-12-22T05:47:23.430Z,11.00
2018-12-22T05:49:51.028Z,9.73
2018-12-22T05:52:19.558Z,9.77
2018-12-22T05:54:47.100Z,9.23
2018-12-22T05:57:14.721Z,11.07
2018-12-22T05:59:42.272Z,11.13
2018-12-22T06:02:09.865Z,8.50
2018-12-22T06:04:37.444Z,11.43
2018-12-22T06:07:05.135Z,11.90
2018-12-22T06:09:32.720Z,7.13
2018-12-22T06:12:00.341Z,9.00
2018-12-22T06:14:27.935Z,9.53
2018-12-22T06:16:55.539Z,8.70
2018-12-22T06:19:23.120Z,8.97
2018-12-22T06:21:50.678Z,8.03
2018-12-22T06:24:18.275Z,10.90
2018-12-22T06:26:45.875Z,8.70
2018-12-22T06:29:13.430Z,11.03
2018-12-22T06:31:41.012Z,7.80
2018-12-22T06:34:08.555Z,9.27
2018-12-22T06:36:36.183Z,6.93
2018-12-22T06:39:05.320Z,9.43
2018-12-22T06:41:32.898Z,10.10
2018-12-22T06:44:00.496Z,9.23
2018-12-22T06:46:28.122Z,9.93
2018-12-22T06:48:55.702Z,9.93
2018-12-22T06:51:23.261Z,7.27
2018-12-22T06:53:50.846Z,9.00
2018-12-22T06:56:18.489Z,5.93
2018-12-22T06:58:46.105Z,7.97
2018-12-22T07:01:13.702Z,6.00
2018-12-22T07:03:41.256Z,7.20
2018-12-22T07:06:08.835Z,7.90
2018-12-22T07:08:36.394Z,6.80
2018-12-22T07:11:03.995Z,11.97
2018-12-22T07:13:31.628Z,8.97
2018-12-22T07:15:59.184Z,7.47
2018-12-22T07:18:26.792Z,9.57
2018-12-22T07:20:54.372Z,9.50
2018-12-22T07:23:21.926Z,7.90
2018-12-22T07:25:49.522Z,7.80
2018-12-22T07:28:17.081Z,6.60
2018-12-22T07:30:44.704Z,8.50
2018-12-22T07:33:12.257Z,8.07
2018-12-22T07:35:39.809Z,6.10
2018-12-22T07:38:07.397Z,6.03
2018-12-22T07:40:34.948Z,9.07
2018-12-22T07:43:02.528Z,7.10
2018-12-22T07:45:30.108Z,8.17
2018-12-22T07:47:57.652Z,8.30
2018-12-22T07:50:25.267Z,7.57
2018-12-22T07:52:52.831Z,6.07
2018-12-22T07:55:20.421Z,6.63
2018-12-22T07:57:47.974Z,4.40
2018-12-22T08:00:15.565Z,4.63
2018-12-22T08:02:43.155Z,5.40
2018-12-22T08:05:11.702Z,8.13
2018-12-22T08:07:39.292Z,6.30
2018-12-22T08:10:06.940Z,4.60
2018-12-22T08:12:34.518Z,5.93
2018-12-22T08:15:02.104Z,5.37
2018-12-22T08:17:29.766Z,5.80
2018-12-22T08:19:57.365Z,11.27
2018-12-22T08:22:24.948Z,7.63
2018-12-22T08:24:52.497Z,5.17
2018-12-22T08:27:20.094Z,6.07
2018-12-22T08:29:47.647Z,4.37
2018-12-22T08:32:15.231Z,6.33
2018-12-22T08:34:42.831Z,6.13
2018-12-22T08:37:10.414Z,5.53
2018-12-22T08:39:37.997Z,5.73
2018-12-22T08:42:05.601Z,5.47
2018-12-22T08:44:33.194Z,6.13
2018-12-22T08:47:00.742Z,5.87
2018-12-22T08:49:29.248Z,8.30
2018-12-22T08:51:56.791Z,6.90
2018-12-22T08:54:24.395Z,7.60
2018-12-22T08:56:51.940Z,7.77
2018-12-22T08:59:19.556Z,7.30
2018-12-22T09:01:47.166Z,7.00
2018-12-22T09:04:14.788Z,6.43
2018-12-22T09:06:42.369Z,6.73
2018-12-22T09:09:10.060Z,5.50
2018-12-22T09:11:37.652Z,5.03
2018-12-22T09:14:05.201Z,4.67
2018-12-22T09:16:32.818Z,4.27
2018-12-22T09:19:00.380Z,4.70
2018-12-22T09:21:27.998Z,6.03
2018-12-22T09:23:55.541Z,8.17
2018-12-22T09:26:23.136Z,8.17
2018-12-22T09:28:50.730Z,5.87
2018-12-22T09:31:18.320Z,7.00
2018-12-22T09:33:45.900Z,6.70
2018-12-22T09:36:13.480Z,7.00
2018-12-22T09:38:41.110Z,7.57
2018-12-22T09:41:08.660Z,6.20
2018-12-22T09:43:36.237Z,6.83
2018-12-22T09:46:03.947Z,6.27
2018-12-22T09:48:31.526Z,8.67
2018-12-22T09:50:59.149Z,5.23
2018-12-22T09:53:26.736Z,10.57
2018-12-22T09:55:54.325Z,9.60
2018-12-22T09:58:21.877Z,7.27
2018-12-22T10:00:49.481Z,5.07
2018-12-22T10:03:17.019Z,9.07
2018-12-22T10:05:44.621Z,8.00
2018-12-22T10:08:12.194Z,7.07
2018-12-22T10:10:39.754Z,8.50
2018-12-22T10:13:07.344Z,8.67
2018-12-22T10:15:34.897Z,6.03
2018-12-22T10:18:02.496Z,6.07
2018-12-22T10:20:30.047Z,9.30
2018-12-22T10:22:57.633Z,6.70
2018-12-22T10:25:25.184Z,9.17
2018-12-22T10:27:52.785Z,10.53
2018-12-22T10:30:20.363Z,7.67
2018-12-22T10:32:47.967Z,6.53
2018-12-22T10:35:19.494Z,5.13
2018-12-22T10:37:47.103Z,9.03
2018-12-22T10:40:14.692Z,7.63
2018-12-22T10:42:42.270Z,8.93
2018-12-22T10:45:10.045Z,8.93
2018-12-22T10:47:37.730Z,7.13
2018-12-22T10:50:06.304Z,7.70
2018-12-22T10:52:33.846Z,6.17
2018-12-22T10:55:01.462Z,7.67
2018-12-22T10:57:29.044Z,8.07
2018-12-22T10:59:56.735Z,8.40
2018-12-22T11:02:24.281Z,7.73
2018-12-22T11:04:51.868Z,7.53
2018-12-22T11:07:19.414Z,6.40
2018-12-22T11:09:48.081Z,11.53
2018-12-22T11:12:15.733Z,10.60
2018-12-22T11:14:43.337Z,10.00
2018-12-22T11:17:10.889Z,6.87
2018-12-22T11:19:38.427Z,7.50
2018-12-22T11:22:06.012Z,9.00
2018-12-22T11:24:33.589Z,9.07
2018-12-22T11:27:01.217Z,7.40
2018-12-22T11:29:28.828Z,9.93
2018-12-22T11:31:56.473Z,5.70
2018-12-22T11:34:24.051Z,6.27
2018-12-22T11:36:51.609Z,5.80
2018-12-22T11:39:19.211Z,7.40
2018-12-22T11:41:46.761Z,6.63
2018-12-22T11:44:14.325Z,6.80
2018-12-22T11:46:41.920Z,7.10
2018-12-22T11:49:09.582Z,8.80
2018-12-22T11:51:37.209Z,9.43
2018-12-22T11:54:04.763Z,6.93
2018-12-22T11:56:32.341Z,7.43
2018-12-22T11:58:59.933Z,5.60
2018-12-22T12:01:27.559Z,8.93
2018-12-22T12:03:55.136Z,6.57
2018-12-22T12:06:22.720Z,9.30
2018-12-22T12:08:50.315Z,8.53
2018-12-22T12:11:17.870Z,6.80
2018-12-22T12:13:45.454Z,7.33
2018-12-22T12:16:20.279Z,6.87
2018-12-22T12:18:56.339Z,5.60
2018-12-22T12:21:23.920Z,7.13
2018-12-22T12:23:51.545Z,4.53
2018-12-22T12:26:19.121Z,8.47
2018-12-22T12:28:46.709Z,7.90
2018-12-22T12:31:14.258Z,8.20
2018-12-22T12:33:41.853Z,4.10
2018-12-22T12:36:09.437Z,8.30
2018-12-22T12:38:37.018Z,7.73
2018-12-22T12:41:04.611Z,6.93
2018-12-22T12:43:32.159Z,6.17
2018-12-22T12:45:59.747Z,4.23
2018-12-22T12:48:27.297Z,4.97
2018-12-22T12:50:54.898Z,6.33
2018-12-22T12:53:22.438Z,5.97
2018-12-22T12:55:50.645Z,9.03
2018-12-22T12:58:18.229Z,5.27
2018-12-22T13:00:45.806Z,5.83
2018-12-22T13:03:13.364Z,6.43
2018-12-22T13:05:40.982Z,5.53
2018-12-22T13:08:08.538Z,6.87
2018-12-22T13:10:36.121Z,4.33
2018-12-22T13:13:10.701Z,8.57
2018-12-22T13:15:38.282Z,5.20
2018-12-22T13:18:05.974Z,4.00
2018-12-22T13:20:33.564Z,7.87
2018-12-22T13:23:01.135Z,7.13
2018-12-22T13:25:28.823Z,7.20
2018-12-22T13:27:56.397Z,5.80
2018-12-22T13:30:23.951Z,6.90
2018-12-22T13:32:51.823Z,8.87
2018-12-22T13:35:19.543Z,6.37
2018-12-22T13:37:47.141Z,5.07
2018-12-22T13:40:14.718Z,9.93
2018-12-22T13:42:42.305Z,11.17
2018-12-22T13:45:11.108Z,5.73
2018-12-22T13:47:38.926Z,5.13
2018-12-22T13:50:14.584Z,3.27
2018-12-22T13:52:42.238Z,2.63
2018-12-22T13:55:10.424Z,4.33
2018-12-22T13:57:41.588Z,3.57
2018-12-22T14:00:19.770Z,3.03
2018-12-22T14:02:47.362Z,6.73
2018-12-22T14:05:19.433Z,3.83
2018-12-22T14:07:47.013Z,4.73
2018-12-22T14:10:14.608Z,4.40
2018-12-22T14:12:42.155Z,3.50
2018-12-22T14:15:14.911Z,3.10
2018-12-22T14:17:45.677Z,5.20
2018-12-22T14:20:13.269Z,5.57
2018-12-22T14:22:40.847Z,3.77
2018-12-22T14:25:11.830Z,5.63
2018-12-22T14:27:39.385Z,5.50
2018-12-22T14:30:10.993Z,8.20
2018-12-22T14:32:38.543Z,8.00
2018-12-22T14:35:10.794Z,6.83
2018-12-22T14:37:38.348Z,7.40
2018-12-22T14:40:11.114Z,5.80
2018-12-22T14:42:38.918Z,7.53
2018-12-22T14:45:13.310Z,10.63
2018-12-22T14:47:41.721Z,7.00
2018-12-22T14:50:11.630Z,9.10
2018-12-22T14:52:39.225Z,6.13
2018-12-22T14:55:10.030Z,6.00
2018-12-22T14:57:42.407Z,6.67
2018-12-22T15:00:13.744Z,8.30
2018-12-22T15:02:41.353Z,7.17
2018-12-22T15:05:08.939Z,9.20
2018-12-22T15:07:36.524Z,8.60
2018-12-22T15:10:07.804Z,8.27
2018-12-22T15:12:35.458Z,6.70
2018-12-22T15:15:03.725Z,10.43
2018-12-22T15:17:31.348Z,6.77
2018-12-22T15:19:58.945Z,7.80
2018-12-22T15:22:26.535Z,6.47
2018-12-22T15:24:54.126Z,6.10
2018-12-22T15:27:21.737Z,7.57
2018-12-22T15:29:49.320Z,10.13
2018-12-22T15:32:16.906Z,8.03
2018-12-22T15:34:44.497Z,6.90
2018-12-22T15:37:12.082Z,8.93
2018-12-22T15:39:39.661Z,7.20
2018-12-22T15:42:07.222Z,7.43
2018-12-22T15:44:34.812Z,8.77
2018-12-22T15:47:02.368Z,7.80
2018-12-22T15:49:29.973Z,10.93
2018-12-22T15:51:57.530Z,7.93
2018-12-22T15:54:25.076Z,9.37
2018-12-22T15:56:52.673Z,4.07
2018-12-22T15:59:20.257Z,6.07
2018-12-22T16:01:47.857Z,7.07
2018-12-22T16:04:15.415Z,5.37
2018-12-22T16:06:43.004Z,6.43
2018-12-22T16:09:10.550Z,5.60
2018-12-22T16:11:38.171Z,7.17
2018-12-22T16:14:05.714Z,7.90
2018-12-22T16:16:33.300Z,10.30
2018-12-22T16:19:00.847Z,9.33
2018-12-22T16:21:28.462Z,6.80
2018-12-22T16:23:56.045Z,12.33
2018-12-22T16:26:23.640Z,9.57
2018-12-22T16:28:51.313Z,6.20
2018-12-22T16:31:18.931Z,7.50
2018-12-22T16:33:46.509Z,7.70
2018-12-22T16:36:14.134Z,6.97
2018-12-22T16:38:41.685Z,7.10
2018-12-22T16:41:09.235Z,6.63
2018-12-22T16:43:36.849Z,6.30
2018-12-22T16:46:04.436Z,5.53
2018-12-22T16:48:32.118Z,7.43
2018-12-22T16:50:59.663Z,6.73
2018-12-22T16:53:27.245Z,7.67
2018-12-22T16:55:54.827Z,8.57
2018-12-22T16:58:25.563Z,8.07
2018-12-22T17:00:59.811Z,8.13
2018-12-22T17:03:27.948Z,12.00
2018-12-22T17:05:56.421Z,7.90
2018-12-22T17:08:28.108Z,9.67
2018-12-22T17:10:57.850Z,8.30
2018-12-22T17:13:25.647Z,6.37
2018-12-22T17:15:53.527Z,8.20
2018-12-22T17:18:21.806Z,7.47
2018-12-22T17:20:52.957Z,9.70
2018-12-22T17:23:29.085Z,8.97
2018-12-22T17:25:58.555Z,11.57
2018-12-22T17:28:28.459Z,7.40
2018-12-22T17:30:55.825Z,8.83
2018-12-22T17:33:23.412Z,10.87
2018-12-22T17:35:51.791Z,13.17
2018-12-22T17:38:20.752Z,11.90
2018-12-22T17:40:48.615Z,12.80
2018-12-22T17:43:16.211Z,11.17
2018-12-22T17:45:43.817Z,13.73
2018-12-22T17:48:11.412Z,12.30
2018-12-22T17:50:39.030Z,9.77
2018-12-22T17:53:06.629Z,10.60
2018-12-22T17:55:34.181Z,9.13
2018-12-22T17:58:01.781Z,8.30
2018-12-22T18:00:29.358Z,9.23
2018-12-22T18:02:56.915Z,15.20
2018-12-22T18:05:24.500Z,10.93
2018-12-22T18:07:52.092Z,11.90
2018-12-22T18:10:19.668Z,12.30
2018-12-22T18:12:47.266Z,10.37
2018-12-22T18:15:19.128Z,9.93
2018-12-22T18:17:46.730Z,13.37
2018-12-22T18:20:14.368Z,7.90
2018-12-22T18:22:42.113Z,9.03
2018-12-22T18:25:14.000Z,8.10
2018-12-22T18:27:41.619Z,10.57
2018-12-22T18:30:11.943Z,6.80
2018-12-22T18:32:40.561Z,9.60
2018-12-22T18:35:10.320Z,10.10
2018-12-22T18:37:38.596Z,13.30
2018-12-22T18:40:12.564Z,13.77
2018-12-22T18:42:40.285Z,15.63
2018-12-22T18:45:10.425Z,13.03
2018-12-22T18:47:38.108Z,14.37
2018-12-22T18:50:11.717Z,18.67
2018-12-22T18:52:39.311Z,9.50
2018-12-22T18:55:09.332Z,14.57
2018-12-22T18:57:37.267Z,12.77
2018-12-22T19:00:20.012Z,13.53
2018-12-22T19:02:47.566Z,16.63
2018-12-22T19:05:16.302Z,16.40
2018-12-22T19:07:43.886Z,18.57
2018-12-22T19:10:14.714Z,17.50
2018-12-22T19:12:42.301Z,13.93
2018-12-22T19:15:10.085Z,17.33
2018-12-22T19:17:37.673Z,18.37
2018-12-22T19:23:06.675Z,7.30
2018-12-22T19:25:34.274Z,4.20
2018-12-22T19:28:01.855Z,4.50
2018-12-22T19:30:29.490Z,7.83
2018-12-22T19:32:57.104Z,12.53
2018-12-22T19:35:24.702Z,9.60
2018-12-22T19:37:52.283Z,12.80
2018-12-22T19:40:19.917Z,17.60
2018-12-22T19:42:47.500Z,16.77
2018-12-22T19:45:15.107Z,16.80
2018-12-22T19:47:42.676Z,20.43
2018-12-22T19:50:10.270Z,23.33
2018-12-22T19:52:37.837Z,20.37
2018-12-22T19:55:06.876Z,21.50
2018-12-22T19:57:34.466Z,22.47
2018-12-22T20:00:02.105Z,20.80
2018-12-22T20:02:29.675Z,23.37
2018-12-22T20:04:57.272Z,21.47
2018-12-22T20:07:24.834Z,26.43
2018-12-22T20:09:52.454Z,19.30
2018-12-22T20:12:20.013Z,17.70
2018-12-22T20:14:47.630Z,16.57
2018-12-22T20:17:15.224Z,22.27
2018-12-22T20:19:42.796Z,23.17
2018-12-22T20:22:10.405Z,18.33
2018-12-22T20:24:37.964Z,15.90
2018-12-22T20:27:05.567Z,19.60
2018-12-22T20:29:33.177Z,21.70
2018-12-22T20:32:00.980Z,22.83
2018-12-22T20:34:28.618Z,20.40
2018-12-22T20:36:56.179Z,21.77
2018-12-22T20:39:23.765Z,19.50
2018-12-22T20:41:51.372Z,20.53
2018-12-22T20:44:19.024Z,14.47
2018-12-22T20:46:46.599Z,14.83
2018-12-22T20:49:14.533Z,14.27
2018-12-22T20:51:42.112Z,19.47
2018-12-22T20:54:09.730Z,21.47
2018-12-22T20:56:39.100Z,14.43
2018-12-22T20:59:06.842Z,17.30
2018-12-22T21:01:34.479Z,19.40
2018-12-22T21:04:02.202Z,18.47
2018-12-22T21:06:32.317Z,17.90
2018-12-22T21:08:59.967Z,27.67
2018-12-22T21:11:27.590Z,21.17
2018-12-22T21:13:55.531Z,22.37
2018-12-22T21:16:23.196Z,21.80
2018-12-22T21:18:50.824Z,19.10
2018-12-22T21:21:18.399Z,16.77
2018-12-22T21:23:45.994Z,19.67
2018-12-22T21:26:13.567Z,17.10
2018-12-22T21:28:41.426Z,25.70
2018-12-22T21:31:09.029Z,15.33
2018-12-22T21:33:36.596Z,15.73
2018-12-22T21:36:04.206Z,17.23
2018-12-22T21:38:31.777Z,15.30
2018-12-22T21:40:59.561Z,18.47
2018-12-22T21:43:27.406Z,15.07
2018-12-22T21:45:54.998Z,14.17
2018-12-22T21:48:22.661Z,17.57
2018-12-22T21:50:50.284Z,18.70
2018-12-22T21:53:17.847Z,13.93
2018-12-22T21:55:45.491Z,12.40
2018-12-22T21:58:13.110Z,12.20
2018-12-22T22:00:40.679Z,11.90
2018-12-22T22:03:08.495Z,12.67
2018-12-22T22:05:36.107Z,11.47
2018-12-22T22:08:03.807Z,12.63
2018-12-22T22:10:31.489Z,11.07
2018-12-22T22:12:59.111Z,9.93
2018-12-22T22:15:26.707Z,10.63
2018-12-22T22:17:54.303Z,9.27
2018-12-22T22:20:21.913Z,10.40
2018-12-22T22:22:49.512Z,8.97
2018-12-22T22:25:17.200Z,8.93
2018-12-22T22:27:44.782Z,11.20
2018-12-22T22:30:12.380Z,9.27
2018-12-22T22:32:39.941Z,12.40
2018-12-22T22:35:07.636Z,9.07
2018-12-22T22:37:35.226Z,9.87
2018-12-22T22:40:03.334Z,9.90
2018-12-22T22:42:30.945Z,10.17
2018-12-22T22:44:58.551Z,10.60
2018-12-22T22:47:26.117Z,10.57
2018-12-22T22:49:53.712Z,8.57
2018-12-22T22:52:21.351Z,8.30
2018-12-22T22:54:48.921Z,10.30
2018-12-22T22:57:16.519Z,7.23
2018-12-22T22:59:44.164Z,9.10
2018-12-22T23:02:11.753Z,10.77
2018-12-22T23:04:39.354Z,12.63
2018-12-22T23:07:06.912Z,9.83
2018-12-22T23:09:34.521Z,11.13
2018-12-22T23:12:02.281Z,8.17
2018-12-22T23:14:29.867Z,10.90
2018-12-22T23:16:57.483Z,14.40
2018-12-22T23:19:25.110Z,11.93
2018-12-22T23:21:52.728Z,14.93
2018-12-22T23:24:20.589Z,15.47
2018-12-22T23:26:48.148Z,14.53
2018-12-22T23:29:15.762Z,22.70
2018-12-22T23:31:43.327Z,20.17
2018-12-22T23:34:11.101Z,15.83
2018-12-22T23:36:38.780Z,18.53
2018-12-22T23:39:06.496Z,21.13
2018-12-22T23:41:34.133Z,19.07
2018-12-22T23:44:01.753Z,17.27
2018-12-22T23:46:29.357Z,15.17
2018-12-22T23:48:56.967Z,19.20
2018-12-22T23:51:24.574Z,11.73
2018-12-22T23:53:52.164Z,20.50
2018-12-22T23:56:19.766Z,16.40
2018-12-22T23:58:47.368Z,18.00
